createdAt,value
2023-01-29T00:00:49.635Z,-3.9
2023-01-29T00:01:49.754Z,-3.93
2023-01-29T00:02:49.252Z,-3.91
2023-01-29T00:03:49.581Z,-3.87
2023-01-29T00:04:49.542Z,-3.96
2023-01-29T00:05:49.531Z,-3.87
2023-01-29T00:06:49.468Z,-3.82
2023-01-29T00:07:49.403Z,-3.82
2023-01-29T00:08:49.455Z,-3.87
2023-01-29T00:09:49.419Z,-3.8
2023-01-29T00:10:49.136Z,-3.82
2023-01-29T00:11:49.412Z,-3.82
2023-01-29T00:12:49.382Z,-3.76
2023-01-29T00:13:50.572Z,-3.86
2023-01-29T00:14:49.297Z,-3.86
2023-01-29T00:15:49.273Z,-3.83
2023-01-29T00:16:49.301Z,-3.83
2023-01-29T00:17:49.018Z,-3.86
2023-01-29T00:18:49.223Z,-3.83
2023-01-29T00:19:48.987Z,-3.87
2023-01-29T00:20:49.155Z,-3.86
2023-01-29T00:21:49.171Z,-3.9
2023-01-29T00:22:48.911Z,-3.86
2023-01-29T00:23:48.863Z,-3.9
2023-01-29T00:24:48.826Z,-3.96
2023-01-29T00:25:48.549Z,-3.91
2023-01-29T00:26:49.035Z,-3.87
2023-01-29T00:27:49.017Z,-3.91
2023-01-29T00:28:48.494Z,-3.93
2023-01-29T00:29:48.708Z,-3.9
2023-01-29T00:30:48.708Z,-3.86
2023-01-29T00:31:49.283Z,-3.86
2023-01-29T00:32:48.915Z,-3.87
2023-01-29T00:33:48.886Z,-3.83
2023-01-29T00:34:48.875Z,-3.79
2023-01-29T00:35:48.873Z,-3.77
2023-01-29T00:36:48.877Z,-3.8
2023-01-29T00:37:48.822Z,-3.82
2023-01-29T00:38:48.785Z,-3.86
2023-01-29T00:39:53.174Z,-3.82
2023-01-29T00:40:48.792Z,-3.79
2023-01-29T00:41:48.702Z,-3.79
2023-01-29T00:42:48.161Z,-3.82
2023-01-29T00:43:48.669Z,-3.82
2023-01-29T00:44:48.387Z,-3.79
2023-01-29T00:45:48.350Z,-3.79
2023-01-29T00:46:48.511Z,-3.79
2023-01-29T00:47:48.578Z,-3.82
2023-01-29T00:48:48.288Z,-3.88
2023-01-29T00:49:48.525Z,-3.9
2023-01-29T00:50:48.505Z,-3.83
2023-01-29T00:51:48.528Z,-3.87
2023-01-29T00:52:48.482Z,-3.87
2023-01-29T00:53:48.457Z,-3.91
2023-01-29T00:54:48.420Z,-3.93
2023-01-29T00:55:48.143Z,-3.91
2023-01-29T00:56:48.384Z,-3.9
2023-01-29T00:57:48.098Z,-3.91
2023-01-29T00:58:48.343Z,-3.87
2023-01-29T00:59:48.309Z,-3.91
2023-01-29T01:00:48.517Z,-3.91
2023-01-29T01:01:48.150Z,-3.93
2023-01-29T01:02:48.004Z,-3.88
2023-01-29T01:03:47.720Z,-3.94
2023-01-29T01:04:48.195Z,-3.88
2023-01-29T01:05:48.174Z,-3.87
2023-01-29T01:06:48.185Z,-3.93
2023-01-29T01:07:48.326Z,-3.9
2023-01-29T01:08:48.117Z,-3.91
2023-01-29T01:09:47.852Z,-3.83
2023-01-29T01:10:48.064Z,-3.91
2023-01-29T01:11:47.785Z,-3.87
2023-01-29T01:12:48.033Z,-3.91
2023-01-29T01:13:47.995Z,-3.86
2023-01-29T01:14:48.053Z,-3.97
2023-01-29T01:15:47.954Z,-3.9
2023-01-29T01:16:47.682Z,-3.91
2023-01-29T01:17:47.666Z,-3.94
2023-01-29T01:18:47.894Z,-3.93
2023-01-29T01:19:47.617Z,-4
2023-01-29T01:20:47.593Z,-3.98
2023-01-29T01:21:47.844Z,-3.87
2023-01-29T01:22:47.547Z,-3.91
2023-01-29T01:23:47.825Z,-3.96
2023-01-29T01:24:47.535Z,-3.86
2023-01-29T01:25:47.515Z,-3.93
2023-01-29T01:26:47.482Z,-3.97
2023-01-29T01:27:47.710Z,-3.91
2023-01-29T01:28:47.415Z,-3.91
2023-01-29T01:29:47.395Z,-3.97
2023-01-29T01:30:47.770Z,-3.88
2023-01-29T01:31:47.599Z,-3.96
2023-01-29T01:32:47.359Z,-3.94
2023-01-29T01:34:47.035Z,-3.91
2023-01-29T01:35:47.527Z,-3.93
2023-01-29T01:36:47.488Z,-3.94
2023-01-29T01:37:47.475Z,-3.93
2023-01-29T01:38:47.446Z,-3.98
2023-01-29T01:39:47.607Z,-3.93
2023-01-29T01:40:47.411Z,-3.9
2023-01-29T01:41:47.163Z,-4.05
2023-01-29T01:42:47.102Z,-4.08
2023-01-29T01:43:47.340Z,-4.05
2023-01-29T01:44:47.367Z,-3.96
2023-01-29T01:45:47.204Z,-3.97
2023-01-29T01:46:47.014Z,-4
2023-01-29T01:47:47.257Z,-4.06
2023-01-29T01:48:47.260Z,-4.04
2023-01-29T01:49:46.956Z,-3.93
2023-01-29T01:50:47.208Z,-3.91
2023-01-29T01:51:47.187Z,-4.06
2023-01-29T01:52:46.881Z,-3.97
2023-01-29T01:53:47.147Z,-4.01
2023-01-29T01:54:46.858Z,-4.01
2023-01-29T01:55:47.141Z,-4.01
2023-01-29T01:56:46.803Z,-4.04
2023-01-29T01:57:47.057Z,-4.08
2023-01-29T01:58:46.751Z,-4.05
2023-01-29T01:59:46.734Z,-3.98
2023-01-29T02:00:46.711Z,-4.04
2023-01-29T02:01:46.945Z,-4.01
2023-01-29T02:02:46.682Z,-4
2023-01-29T02:03:46.905Z,-4.05
2023-01-29T02:04:46.877Z,-4.04
2023-01-29T02:05:46.877Z,-4.04
2023-01-29T02:06:46.580Z,-4.06
2023-01-29T02:07:46.556Z,-4.04
2023-01-29T02:08:46.536Z,-4.06
2023-01-29T02:09:46.555Z,-4.11
2023-01-29T02:10:46.279Z,-4.04
2023-01-29T02:11:46.777Z,-4.01
2023-01-29T02:12:46.706Z,-4.06
2023-01-29T02:13:46.790Z,-4.08
2023-01-29T02:14:46.405Z,-4.12
2023-01-29T02:15:46.682Z,-4.05
2023-01-29T02:16:46.103Z,-3.97
2023-01-29T02:17:46.773Z,-4.01
2023-01-29T02:18:46.580Z,-4
2023-01-29T02:19:46.033Z,-3.97
2023-01-29T02:20:46.279Z,-4.08
2023-01-29T02:21:46.516Z,-4.08
2023-01-29T02:22:46.224Z,-4.05
2023-01-29T02:23:46.162Z,-4.11
2023-01-29T02:24:46.646Z,-4.14
2023-01-29T02:25:46.159Z,-4.11
2023-01-29T02:26:46.140Z,-4.12
2023-01-29T02:27:46.415Z,-4.11
2023-01-29T02:28:45.835Z,-4.11
2023-01-29T02:29:46.107Z,-4.12
2023-01-29T02:30:46.556Z,-4.08
2023-01-29T02:31:46.246Z,-4.15
2023-01-29T02:32:46.004Z,-4.11
2023-01-29T02:33:46.014Z,-4.12
2023-01-29T02:34:45.957Z,-4.08
2023-01-29T02:35:46.189Z,-4.05
2023-01-29T02:36:46.197Z,-4.08
2023-01-29T02:37:45.884Z,-4.06
2023-01-29T02:38:46.127Z,-4.05
2023-01-29T02:39:46.108Z,-4.12
2023-01-29T02:40:46.244Z,-4.12
2023-01-29T02:41:45.798Z,-4.05
2023-01-29T02:42:45.534Z,-4.06
2023-01-29T02:43:46.066Z,-4.09
2023-01-29T02:44:46.000Z,-4.05
2023-01-29T02:45:46.163Z,-4.04
2023-01-29T02:46:45.703Z,-4.01
2023-01-29T02:47:45.938Z,-4.01
2023-01-29T02:48:45.643Z,-4.01
2023-01-29T02:49:45.881Z,-4.01
2023-01-29T02:50:45.861Z,-4.05
2023-01-29T02:51:45.588Z,-4.08
2023-01-29T02:52:45.823Z,-4.08
2023-01-29T02:53:45.798Z,-4.12
2023-01-29T02:54:45.771Z,-4.12
2023-01-29T02:55:45.745Z,-4.22
2023-01-29T02:56:45.462Z,-4.18
2023-01-29T02:57:45.450Z,-4.29
2023-01-29T02:58:45.700Z,-4.29
2023-01-29T02:59:45.709Z,-4.26
2023-01-29T03:00:45.740Z,-4.26
2023-01-29T03:01:45.657Z,-4.11
2023-01-29T03:02:45.332Z,-4.16
2023-01-29T03:03:45.592Z,-4.3
2023-01-29T03:04:45.557Z,-4.3
2023-01-29T03:05:45.275Z,-4.16
2023-01-29T03:06:45.519Z,-4.18
2023-01-29T03:07:45.513Z,-4.26
2023-01-29T03:08:45.316Z,-4.26
2023-01-29T03:09:45.470Z,-4.3
2023-01-29T03:10:45.438Z,-4.32
2023-01-29T03:11:45.166Z,-4.3
2023-01-29T03:12:45.120Z,-4.32
2023-01-29T03:13:45.099Z,-4.34
2023-01-29T03:14:45.064Z,-4.34
2023-01-29T03:15:45.348Z,-4.41
2023-01-29T03:16:45.502Z,-4.37
2023-01-29T03:17:45.666Z,-4.41
2023-01-29T03:18:44.977Z,-4.47
2023-01-29T03:19:45.231Z,-4.45
2023-01-29T03:20:45.217Z,-4.48
2023-01-29T03:21:44.907Z,-4.44
2023-01-29T03:22:44.893Z,-4.43
2023-01-29T03:23:45.120Z,-4.5
2023-01-29T03:24:45.092Z,-4.5
2023-01-29T03:25:45.093Z,-4.5
2023-01-29T03:26:44.797Z,-4.47
2023-01-29T03:27:44.787Z,-4.53
2023-01-29T03:28:44.840Z,-4.48
2023-01-29T03:29:44.982Z,-4.55
2023-01-29T03:30:44.715Z,-4.57
2023-01-29T03:31:45.443Z,-4.48
2023-01-29T03:32:44.917Z,-4.48
2023-01-29T03:50:14.932Z,-4.44
2023-01-29T03:51:14.907Z,-4.53
2023-01-29T03:52:15.119Z,-4.53
2023-01-29T03:53:15.105Z,-4.59
2023-01-29T03:54:15.076Z,-4.59
2023-01-29T03:55:15.067Z,-4.57
2023-01-29T03:56:14.767Z,-4.66
2023-01-29T03:57:14.786Z,-4.59
2023-01-29T03:58:15.036Z,-4.54
2023-01-29T03:59:14.960Z,-4.54
2023-01-29T04:00:15.143Z,-4.54
2023-01-29T04:01:14.599Z,-4.57
2023-01-29T04:02:14.668Z,-4.5
2023-01-29T04:03:14.871Z,-4.61
2023-01-29T04:04:14.511Z,-4.65
2023-01-29T04:05:14.877Z,-4.65
2023-01-29T04:06:15.039Z,-4.63
2023-01-29T04:07:14.542Z,-4.62
2023-01-29T04:08:14.495Z,-4.55
2023-01-29T04:09:14.733Z,-4.61
2023-01-29T04:10:15.095Z,-4.59
2023-01-29T04:11:14.693Z,-4.66
2023-01-29T04:12:14.433Z,-4.53
2023-01-29T04:13:14.697Z,-4.53
2023-01-29T04:14:14.632Z,-4.61
2023-01-29T04:15:14.341Z,-4.61
2023-01-29T04:16:14.776Z,-4.61
2023-01-29T04:17:14.550Z,-4.61
2023-01-29T04:18:15.335Z,-4.57
2023-01-29T04:19:15.286Z,-4.55
2023-01-29T04:20:15.733Z,-4.66
2023-01-29T04:21:14.988Z,-4.55
2023-01-29T04:22:15.488Z,-4.72
2023-01-29T04:23:15.468Z,-4.62
2023-01-29T04:24:15.635Z,-4.68
2023-01-29T04:25:14.905Z,-4.59
2023-01-29T04:26:15.152Z,-4.66
2023-01-29T04:27:15.350Z,-4.62
2023-01-29T04:28:15.337Z,-4.59
2023-01-29T04:29:15.044Z,-4.73
2023-01-29T04:30:15.211Z,-4.76
2023-01-29T04:31:15.884Z,-4.66
2023-01-29T04:32:15.229Z,-4.59
2023-01-29T04:33:14.698Z,-4.62
2023-01-29T04:34:14.944Z,-4.59
2023-01-29T04:35:14.930Z,-4.54
2023-01-29T04:36:14.682Z,-4.61
2023-01-29T04:37:14.865Z,-4.55
2023-01-29T04:38:15.094Z,-4.66
2023-01-29T04:39:16.471Z,-4.62
2023-01-29T04:40:15.213Z,-4.62
2023-01-29T04:41:15.047Z,-4.63
2023-01-29T04:42:14.759Z,-4.59
2023-01-29T04:43:14.781Z,-4.61
2023-01-29T04:44:14.975Z,-4.53
2023-01-29T04:45:14.685Z,-4.54
2023-01-29T04:46:14.712Z,-4.51
2023-01-29T04:47:15.016Z,-4.57
2023-01-29T04:48:14.887Z,-4.55
2023-01-29T04:49:14.350Z,-4.62
2023-01-29T04:50:15.218Z,-4.62
2023-01-29T04:51:14.813Z,-4.66
2023-01-29T04:52:14.801Z,-4.62
2023-01-29T04:53:14.769Z,-4.59
2023-01-29T04:54:14.839Z,-4.63
2023-01-29T04:55:14.724Z,-4.63
2023-01-29T04:56:14.699Z,-4.65
2023-01-29T04:57:14.423Z,-4.71
2023-01-29T04:58:14.155Z,-4.68
2023-01-29T04:59:14.376Z,-4.69
2023-01-29T05:00:15.043Z,-4.73
2023-01-29T05:01:14.081Z,-4.75
2023-01-29T05:02:14.326Z,-4.62
2023-01-29T05:03:14.343Z,-4.76
2023-01-29T05:04:14.308Z,-4.66
2023-01-29T05:05:14.254Z,-4.68
2023-01-29T05:06:14.468Z,-4.66
2023-01-29T05:07:14.316Z,-4.69
2023-01-29T05:08:14.174Z,-4.71
2023-01-29T05:09:14.149Z,-4.69
2023-01-29T05:10:14.938Z,-4.72
2023-01-29T05:11:14.396Z,-4.71
2023-01-29T05:12:14.108Z,-4.87
2023-01-29T05:13:14.059Z,-4.72
2023-01-29T05:14:14.042Z,-4.87
2023-01-29T05:15:14.290Z,-4.84
2023-01-29T05:16:14.456Z,-4.87
2023-01-29T05:17:13.986Z,-4.94
2023-01-29T05:18:14.203Z,-4.94
2023-01-29T05:19:14.735Z,-4.9
2023-01-29T05:20:14.440Z,-5.04
2023-01-29T05:21:14.172Z,-5.05
2023-01-29T05:22:14.143Z,-5.08
2023-01-29T05:23:14.145Z,-5.26
2023-01-29T05:24:14.384Z,-5.23
2023-01-29T05:25:13.534Z,-5.31
2023-01-29T05:26:14.027Z,-5.29
2023-01-29T05:27:14.000Z,-5.41
2023-01-29T05:28:13.990Z,-5.52
2023-01-29T05:29:13.973Z,-5.47
2023-01-29T05:30:13.816Z,-5.42
2023-01-29T05:31:14.474Z,-5.55
2023-01-29T05:32:13.636Z,-5.6
2023-01-29T05:33:13.623Z,-5.62
2023-01-29T05:34:13.608Z,-5.69
2023-01-29T05:35:13.569Z,-5.6
2023-01-29T05:36:13.796Z,-5.69
2023-01-29T05:37:13.783Z,-5.81
2023-01-29T05:38:13.761Z,-5.76
2023-01-29T05:39:13.728Z,-5.81
2023-01-29T05:40:13.633Z,-5.87
2023-01-29T05:41:13.197Z,-5.87
2023-01-29T05:42:13.690Z,-5.98
2023-01-29T05:43:13.387Z,-5.94
2023-01-29T05:44:13.367Z,-5.87
2023-01-29T05:45:13.396Z,-5.99
2023-01-29T05:46:13.659Z,-6.01
2023-01-29T05:47:13.457Z,-6.02
2023-01-29T05:48:13.270Z,-6.07
2023-01-29T05:49:13.249Z,-6.01
2023-01-29T05:50:13.227Z,-6.1
2023-01-29T05:51:13.456Z,-6.05
2023-01-29T05:52:12.933Z,-6.02
2023-01-29T05:53:13.425Z,-6.08
2023-01-29T05:54:13.399Z,-6.13
2023-01-29T05:55:13.361Z,-6.1
2023-01-29T05:56:13.351Z,-6.13
2023-01-29T05:57:13.334Z,-6.15
2023-01-29T05:58:13.326Z,-6.19
2023-01-29T05:59:13.278Z,-6.23
2023-01-29T06:00:13.347Z,-6.23
2023-01-29T06:01:12.724Z,-6.2
2023-01-29T06:02:13.378Z,-6.22
2023-01-29T06:03:13.500Z,-6.22
2023-01-29T06:04:13.168Z,-6.31
2023-01-29T06:05:13.149Z,-6.28
2023-01-29T06:06:12.866Z,-6.37
2023-01-29T06:07:13.159Z,-6.36
2023-01-29T06:08:13.075Z,-6.26
2023-01-29T06:09:12.804Z,-6.36
2023-01-29T06:10:13.029Z,-6.37
2023-01-29T06:11:12.760Z,-6.22
2023-01-29T06:12:12.724Z,-6.38
2023-01-29T06:13:12.976Z,-6.28
2023-01-29T06:14:12.694Z,-6.28
2023-01-29T06:15:12.663Z,-6.2
2023-01-29T06:16:12.811Z,-6.34
2023-01-29T06:17:12.885Z,-6.33
2023-01-29T06:18:12.347Z,-6.31
2023-01-29T06:19:12.825Z,-6.26
2023-01-29T06:20:12.806Z,-6.31
2023-01-29T06:21:12.809Z,-6.34
2023-01-29T06:22:12.765Z,-6.34
2023-01-29T06:23:12.748Z,-6.31
2023-01-29T06:24:12.884Z,-6.31
2023-01-29T06:25:12.531Z,-6.36
2023-01-29T06:26:12.721Z,-6.3
2023-01-29T06:27:12.656Z,-6.36
2023-01-29T06:28:12.362Z,-6.41
2023-01-29T06:29:12.346Z,-6.43
2023-01-29T06:30:12.596Z,-6.26
2023-01-29T06:31:41.382Z,-6.3
2023-01-29T06:32:12.523Z,-6.28
2023-01-29T06:33:12.505Z,-6.25
2023-01-29T06:34:12.507Z,-6.28
2023-01-29T06:35:12.231Z,-6.22
2023-01-29T06:36:12.188Z,-6.25
2023-01-29T06:37:12.438Z,-6.16
2023-01-29T06:38:11.883Z,-6.16
2023-01-29T06:39:12.379Z,-6.18
2023-01-29T06:40:12.372Z,-6.16
2023-01-29T06:41:11.826Z,-6.1
2023-01-29T06:42:12.304Z,-6.05
2023-01-29T06:43:12.275Z,-6.07
2023-01-29T06:44:12.260Z,-6.01
2023-01-29T06:45:12.241Z,-6.04
2023-01-29T06:46:13.126Z,-6.01
2023-01-29T06:47:13.111Z,-5.97
2023-01-29T06:48:13.085Z,-6.01
2023-01-29T06:49:12.544Z,-5.98
2023-01-29T06:50:13.052Z,-5.97
2023-01-29T06:51:13.021Z,-5.94
2023-01-29T06:52:12.724Z,-5.98
2023-01-29T06:53:12.958Z,-5.92
2023-01-29T06:54:12.940Z,-5.95
2023-01-29T06:55:12.914Z,-5.89
2023-01-29T06:56:12.710Z,-5.86
2023-01-29T06:57:12.382Z,-5.79
2023-01-29T06:58:12.850Z,-5.73
2023-01-29T06:59:12.838Z,-5.69
2023-01-29T07:00:12.641Z,-5.69
2023-01-29T07:01:25.285Z,-5.73
2023-01-29T07:02:12.929Z,-5.66
2023-01-29T07:03:12.243Z,-5.65
2023-01-29T07:04:12.461Z,-5.7
2023-01-29T07:05:12.432Z,-5.63
2023-01-29T07:06:12.660Z,-5.59
2023-01-29T07:07:12.383Z,-5.69
2023-01-29T07:08:12.379Z,-5.7
2023-01-29T07:09:12.339Z,-5.65
2023-01-29T07:10:12.365Z,-5.65
2023-01-29T07:11:12.039Z,-5.63
2023-01-29T07:12:12.273Z,-5.69
2023-01-29T07:13:12.512Z,-5.65
2023-01-29T07:14:11.972Z,-5.63
2023-01-29T07:15:12.224Z,-5.56
2023-01-29T07:16:12.659Z,-5.55
2023-01-29T07:17:12.423Z,-5.62
2023-01-29T07:18:11.886Z,-5.59
2023-01-29T07:19:12.616Z,-5.48
2023-01-29T07:20:11.836Z,-5.5
2023-01-29T07:21:12.118Z,-5.56
2023-01-29T07:22:12.297Z,-5.52
2023-01-29T07:23:12.288Z,-5.6
2023-01-29T07:24:12.454Z,-5.59
2023-01-29T07:25:12.230Z,-5.58
2023-01-29T07:26:11.958Z,-5.56
2023-01-29T07:27:12.188Z,-5.63
2023-01-29T07:28:12.225Z,-5.62
2023-01-29T07:29:12.183Z,-5.6
2023-01-29T07:30:12.120Z,-5.63
2023-01-29T07:31:11.893Z,-5.7
2023-01-29T07:32:12.057Z,-5.73
2023-01-29T07:33:11.981Z,-5.7
2023-01-29T07:34:12.048Z,-5.77
2023-01-29T07:35:11.756Z,-5.79
2023-01-29T07:36:11.986Z,-5.76
2023-01-29T07:37:11.963Z,-5.91
2023-01-29T07:38:11.956Z,-5.86
2023-01-29T07:39:11.934Z,-5.91
2023-01-29T07:40:11.650Z,-5.91
2023-01-29T07:41:11.638Z,-5.92
2023-01-29T07:42:11.595Z,-5.89
2023-01-29T07:43:11.580Z,-5.92
2023-01-29T07:44:11.548Z,-5.94
2023-01-29T07:45:11.527Z,-5.98
2023-01-29T07:46:12.163Z,-5.89
2023-01-29T07:47:11.739Z,-5.97
2023-01-29T07:48:11.468Z,-5.92
2023-01-29T07:49:11.692Z,-5.92
2023-01-29T07:50:11.166Z,-5.89
2023-01-29T07:51:11.387Z,-5.89
2023-01-29T07:52:11.619Z,-5.84
2023-01-29T07:53:11.606Z,-5.8
2023-01-29T07:54:11.351Z,-5.77
2023-01-29T07:55:11.386Z,-5.74
2023-01-29T07:56:11.552Z,-5.73
2023-01-29T07:57:11.252Z,-5.65
2023-01-29T07:58:11.484Z,-5.6
2023-01-29T07:59:11.213Z,-5.48
2023-01-29T08:00:10.933Z,-5.45
2023-01-29T08:01:11.574Z,-5.38
2023-01-29T08:02:11.524Z,-5.19
2023-01-29T08:03:11.130Z,-5.1
2023-01-29T08:04:11.367Z,-4.92
2023-01-29T08:05:11.336Z,-4.9
2023-01-29T08:06:11.317Z,-4.75
2023-01-29T08:07:11.027Z,-4.59
2023-01-29T08:08:12.806Z,-4.53
2023-01-29T08:09:11.230Z,-4.43
2023-01-29T08:10:10.989Z,-4.34
2023-01-29T08:11:10.940Z,-4.19
2023-01-29T08:12:11.198Z,-4.22
2023-01-29T08:13:10.677Z,-4.06
2023-01-29T08:14:11.124Z,-4.15
2023-01-29T08:15:10.847Z,-4.04
2023-01-29T08:16:11.344Z,-4
2023-01-29T08:17:11.065Z,-4.04
2023-01-29T08:18:11.086Z,-4
2023-01-29T08:19:11.035Z,-3.91
2023-01-29T08:20:11.001Z,-3.88
2023-01-29T08:21:12.998Z,-3.98
2023-01-29T08:22:10.951Z,-3.98
2023-01-29T08:23:10.701Z,-4
2023-01-29T08:24:10.708Z,-4.01
2023-01-29T08:25:26.759Z,-4.05
2023-01-29T08:26:10.355Z,-3.98
2023-01-29T08:27:10.580Z,-3.91
2023-01-29T08:28:10.836Z,-3.94
2023-01-29T08:29:10.551Z,-3.96
2023-01-29T08:30:10.253Z,-3.88
2023-01-29T08:31:10.649Z,-3.83
2023-01-29T08:32:11.055Z,-3.88
2023-01-29T08:33:11.925Z,-3.94
2023-01-29T08:34:11.887Z,-4.01
2023-01-29T08:35:12.128Z,-3.98
2023-01-29T08:36:12.127Z,-3.91
2023-01-29T08:37:11.831Z,-3.91
2023-01-29T08:38:12.055Z,-3.88
2023-01-29T08:39:11.771Z,-3.88
2023-01-29T08:40:12.179Z,-3.91
2023-01-29T08:41:11.484Z,-3.83
2023-01-29T08:42:11.970Z,-3.87
2023-01-29T08:43:14.200Z,-3.79
2023-01-29T08:44:12.112Z,-3.69
2023-01-29T08:45:11.921Z,-3.66
2023-01-29T08:46:12.181Z,-3.56
2023-01-29T08:47:11.851Z,-3.57
2023-01-29T08:48:11.389Z,-3.48
2023-01-29T08:49:11.827Z,-3.53
2023-01-29T08:50:11.539Z,-3.47
2023-01-29T08:51:11.445Z,-3.38
2023-01-29T08:52:11.497Z,-3.38
2023-01-29T08:53:11.632Z,-3.43
2023-01-29T08:54:11.710Z,-3.36
2023-01-29T08:55:11.434Z,-3.35
2023-01-29T08:56:11.667Z,-3.29
2023-01-29T08:57:11.390Z,-3.25
2023-01-29T08:58:11.222Z,-3.22
2023-01-29T08:59:11.596Z,-3.24
2023-01-29T09:00:11.317Z,-3.28
2023-01-29T09:01:11.505Z,-3.29
2023-01-29T09:02:11.644Z,-3.22
2023-01-29T09:03:11.510Z,-3.24
2023-01-29T09:04:11.488Z,-3.24
2023-01-29T09:05:11.460Z,-3.18
2023-01-29T09:06:11.452Z,-3.28
2023-01-29T09:07:10.910Z,-3.33
2023-01-29T09:08:11.140Z,-3.29
2023-01-29T09:09:11.122Z,-3.28
2023-01-29T09:10:11.360Z,-3.28
2023-01-29T09:11:11.077Z,-3.12
2023-01-29T09:12:11.082Z,-3.03
2023-01-29T09:13:11.282Z,-2.96
2023-01-29T09:14:11.012Z,-3.01
2023-01-29T09:15:11.004Z,-2.9
2023-01-29T09:16:10.976Z,-2.75
2023-01-29T09:17:11.202Z,-2.72
2023-01-29T09:18:10.943Z,-2.67
2023-01-29T09:19:10.898Z,-2.65
2023-01-29T09:20:11.130Z,-2.42
2023-01-29T09:21:11.129Z,-2.42
2023-01-29T09:22:13.394Z,-2.44
2023-01-29T09:23:11.124Z,-2.32
2023-01-29T09:24:10.802Z,-2.2
2023-01-29T09:25:11.073Z,-2.21
2023-01-29T09:26:11.088Z,-2.17
2023-01-29T09:27:11.127Z,-2.14
2023-01-29T09:28:10.974Z,-2.15
2023-01-29T09:29:10.968Z,-2.09
2023-01-29T09:30:10.682Z,-2.05
2023-01-29T09:31:11.286Z,-2.03
2023-01-29T09:32:11.541Z,-1.96
2023-01-29T09:33:10.871Z,-2.03
2023-01-29T09:34:10.585Z,-2.14
2023-01-29T09:35:10.837Z,-2.12
2023-01-29T09:36:10.533Z,-2.09
2023-01-29T09:37:10.799Z,-1.97
2023-01-29T09:38:10.748Z,-2.06
2023-01-29T09:39:10.733Z,-2.03
2023-01-29T09:40:10.738Z,-2.1
2023-01-29T09:41:10.439Z,-1.97
2023-01-29T09:42:10.678Z,-1.91
2023-01-29T09:43:10.640Z,-1.97
2023-01-29T09:44:10.636Z,-1.88
2023-01-29T09:45:10.629Z,-1.68
2023-01-29T09:46:10.727Z,-1.71
2023-01-29T09:47:10.566Z,-1.58
2023-01-29T09:48:10.557Z,-1.58
2023-01-29T09:49:10.534Z,-1.61
2023-01-29T09:50:10.584Z,-1.5
2023-01-29T09:51:10.222Z,-1.46
2023-01-29T09:52:10.225Z,-1.55
2023-01-29T09:53:10.186Z,-1.49
2023-01-29T09:54:10.209Z,-1.49
2023-01-29T09:55:09.913Z,-1.37
2023-01-29T09:56:10.453Z,-1.45
2023-01-29T09:57:10.390Z,-1.53
2023-01-29T09:58:10.365Z,-1.5
2023-01-29T09:59:10.355Z,-1.52
2023-01-29T10:00:10.079Z,-1.6
2023-01-29T10:01:10.773Z,-1.61
2023-01-29T10:02:10.324Z,-1.64
2023-01-29T10:03:09.745Z,-1.71
2023-01-29T10:04:10.406Z,-1.74
2023-01-29T10:05:10.248Z,-1.86
2023-01-29T10:06:09.950Z,-1.81
2023-01-29T10:07:10.175Z,-1.81
2023-01-29T10:08:09.908Z,-1.73
2023-01-29T10:09:09.874Z,-1.64
2023-01-29T10:10:09.899Z,-1.64
2023-01-29T10:11:10.088Z,-1.63
2023-01-29T10:12:10.081Z,-1.53
2023-01-29T10:13:09.546Z,-1.56
2023-01-29T10:14:10.042Z,-1.48
2023-01-29T10:15:09.765Z,-1.38
2023-01-29T10:16:10.050Z,-1.35
2023-01-29T10:17:09.982Z,-1.28
2023-01-29T10:18:09.937Z,-1.28
2023-01-29T10:19:09.661Z,-1.35
2023-01-29T10:20:09.657Z,-1.35
2023-01-29T10:21:09.897Z,-1.46
2023-01-29T10:22:09.618Z,-1.46
2023-01-29T10:23:09.601Z,-1.38
2023-01-29T10:24:09.630Z,-1.35
2023-01-29T10:25:09.556Z,-1.3
2023-01-29T10:26:09.816Z,-1.25
2023-01-29T10:27:09.761Z,-1.24
2023-01-29T10:28:09.222Z,-1.24
2023-01-29T10:29:09.740Z,-1.19
2023-01-29T10:30:09.692Z,-1.34
2023-01-29T10:31:09.782Z,-1.22
2023-01-29T10:32:10.469Z,-1.25
2023-01-29T10:33:09.633Z,-1.28
2023-01-29T10:34:09.648Z,-1.24
2023-01-29T10:35:09.347Z,-1.24
2023-01-29T10:36:09.569Z,-1.11
2023-01-29T10:37:09.548Z,-1.06
2023-01-29T10:38:09.540Z,-1.04
2023-01-29T10:39:09.522Z,-0.96
2023-01-29T10:40:09.227Z,-0.99
2023-01-29T10:41:09.222Z,-0.95
2023-01-29T10:42:09.454Z,-0.96
2023-01-29T10:43:09.194Z,-0.95
2023-01-29T10:44:09.152Z,-1.01
2023-01-29T10:45:09.390Z,-1.03
2023-01-29T10:46:09.358Z,-0.93
2023-01-29T10:47:09.578Z,-0.99
2023-01-29T10:48:09.346Z,-0.93
2023-01-29T10:49:09.323Z,-1.04
2023-01-29T10:50:08.788Z,-0.95
2023-01-29T10:51:09.273Z,-0.87
2023-01-29T10:52:08.994Z,-0.79
2023-01-29T10:53:08.991Z,-0.73
2023-01-29T10:54:09.203Z,-0.69
2023-01-29T10:55:09.199Z,-0.52
2023-01-29T10:56:25.607Z,-0.51
2023-01-29T10:57:08.886Z,-0.55
2023-01-29T10:58:09.169Z,-0.56
2023-01-29T10:59:08.854Z,-0.69
2023-01-29T11:00:08.861Z,-0.64
2023-01-29T11:01:08.820Z,-0.62
2023-01-29T11:02:09.044Z,-0.62
2023-01-29T11:03:27.298Z,-0.59
2023-01-29T11:04:09.054Z,-0.54
2023-01-29T11:05:10.286Z,-0.51
2023-01-29T11:06:08.956Z,-0.41
2023-01-29T11:07:08.989Z,-0.48
2023-01-29T11:08:08.923Z,-0.51
2023-01-29T11:09:08.652Z,-0.43
2023-01-29T11:10:08.361Z,-0.51
2023-01-29T11:11:08.860Z,-0.45
2023-01-29T11:12:08.843Z,-0.48
2023-01-29T11:13:08.568Z,-0.58
2023-01-29T11:14:08.785Z,-0.49
2023-01-29T11:15:08.816Z,-0.64
2023-01-29T11:16:08.496Z,-0.7
2023-01-29T11:17:08.651Z,-0.66
2023-01-29T11:18:08.731Z,-0.61
2023-01-29T11:19:08.706Z,-0.55
2023-01-29T11:20:08.691Z,-0.48
2023-01-29T11:21:08.420Z,-0.52
2023-01-29T11:22:08.374Z,-0.33
2023-01-29T11:23:10.062Z,-0.36
2023-01-29T11:24:08.102Z,-0.38
2023-01-29T11:25:08.088Z,-0.31
2023-01-29T11:26:08.320Z,-0.27
2023-01-29T11:27:08.285Z,-0.22
2023-01-29T11:28:08.508Z,-0.13
2023-01-29T11:29:08.245Z,-0.09
2023-01-29T11:30:08.469Z,0.03
2023-01-29T11:31:08.950Z,0.16
2023-01-29T11:32:08.411Z,0.14
2023-01-29T11:33:08.402Z,0.1
2023-01-29T11:34:08.421Z,0.08
2023-01-29T11:35:08.488Z,0.06
2023-01-29T11:36:08.086Z,0.01
2023-01-29T11:37:08.337Z,0.06
2023-01-29T11:38:08.304Z,0.08
2023-01-29T11:39:08.287Z,0.05
2023-01-29T11:40:08.270Z,0.03
2023-01-29T11:41:08.281Z,-0.01
2023-01-29T11:42:08.240Z,-0.09
2023-01-29T11:43:08.206Z,-0.15
2023-01-29T11:44:08.191Z,-0.22
2023-01-29T11:45:07.673Z,-0.25
2023-01-29T11:46:08.574Z,-0.15
2023-01-29T11:47:08.051Z,-0.16
2023-01-29T11:48:07.866Z,-0.16
2023-01-29T11:49:23.148Z,-0.12
2023-01-29T11:50:07.817Z,-0.16
2023-01-29T11:51:11.009Z,-0.31
2023-01-29T11:52:07.781Z,-0.49
2023-01-29T11:53:07.763Z,-0.49
2023-01-29T11:54:07.754Z,-0.69
2023-01-29T11:55:07.728Z,-0.72
2023-01-29T11:56:07.698Z,-0.66
2023-01-29T11:57:08.081Z,-0.59
2023-01-29T11:58:08.333Z,-0.64
2023-01-29T11:59:08.313Z,-0.66
2023-01-29T12:00:08.308Z,-0.72
2023-01-29T12:01:08.267Z,-0.66
2023-01-29T12:02:08.242Z,-0.69
2023-01-29T12:03:07.707Z,-0.64
2023-01-29T12:04:08.043Z,-0.85
2023-01-29T12:05:08.429Z,-0.89
2023-01-29T12:06:08.436Z,-0.76
2023-01-29T12:07:07.871Z,-0.84
2023-01-29T12:08:07.861Z,-0.91
2023-01-29T12:09:08.093Z,-1.09
2023-01-29T12:10:08.064Z,-1.16
2023-01-29T12:11:07.803Z,-1.07
2023-01-29T12:12:07.512Z,-1.19
2023-01-29T12:13:07.506Z,-1.09
2023-01-29T12:14:08.004Z,-1.07
2023-01-29T12:15:08.127Z,-1.09
2023-01-29T12:16:07.861Z,-1.07
2023-01-29T12:17:07.977Z,-0.98
2023-01-29T12:18:07.393Z,-1.07
2023-01-29T12:19:07.652Z,-1.04
2023-01-29T12:20:07.611Z,-0.98
2023-01-29T12:21:07.848Z,-0.91
2023-01-29T12:22:08.946Z,-0.82
2023-01-29T12:23:07.813Z,-0.85
2023-01-29T12:24:07.781Z,-0.82
2023-01-29T12:25:07.778Z,-0.89
2023-01-29T12:26:07.756Z,-0.85
2023-01-29T12:27:07.467Z,-0.8
2023-01-29T12:28:09.606Z,-0.87
2023-01-29T12:29:07.687Z,-0.98
2023-01-29T12:30:07.676Z,-1.01
2023-01-29T12:31:07.878Z,-1.06
2023-01-29T12:32:07.111Z,-1.16
2023-01-29T12:33:07.377Z,-1.13
2023-01-29T12:34:07.673Z,-1.17
2023-01-29T12:35:07.582Z,-1.13
2023-01-29T12:36:08.225Z,-1.07
2023-01-29T12:37:07.264Z,-1.11
2023-01-29T12:38:07.531Z,-1.09
2023-01-29T12:39:07.416Z,-1.27
2023-01-29T12:40:07.489Z,-1.22
2023-01-29T12:41:07.629Z,-1.27
2023-01-29T12:42:07.624Z,-1.24
2023-01-29T12:43:07.336Z,-1.09
2023-01-29T12:44:07.579Z,-0.96
2023-01-29T12:45:07.559Z,-0.99
2023-01-29T12:46:07.521Z,-0.92
2023-01-29T12:47:07.472Z,-0.87
2023-01-29T12:48:07.479Z,-0.77
2023-01-29T12:49:07.223Z,-0.77
2023-01-29T12:50:07.437Z,-0.84
2023-01-29T12:51:07.424Z,-0.69
2023-01-29T12:52:07.409Z,-0.69
2023-01-29T12:53:07.407Z,-0.7
2023-01-29T12:54:07.160Z,-0.69
2023-01-29T12:55:07.349Z,-0.67
2023-01-29T12:56:07.328Z,-0.52
2023-01-29T12:57:07.302Z,-0.52
2023-01-29T12:58:07.019Z,-0.67
2023-01-29T12:59:07.287Z,-0.69
2023-01-29T13:00:07.250Z,-0.74
2023-01-29T13:01:07.110Z,-0.93
2023-01-29T13:02:06.987Z,-0.99
2023-01-29T13:03:07.299Z,-1.1
2023-01-29T13:04:06.938Z,-0.99
2023-01-29T13:05:07.144Z,-0.96
2023-01-29T13:06:07.175Z,-0.85
2023-01-29T13:07:07.096Z,-0.89
2023-01-29T13:08:06.821Z,-0.85
2023-01-29T13:09:06.817Z,-0.85
2023-01-29T13:10:07.048Z,-0.82
2023-01-29T13:11:06.776Z,-0.98
2023-01-29T13:12:06.987Z,-0.92
2023-01-29T13:13:06.974Z,-0.91